Time;durP1;ratioP1;P1;durP2;ratioP2;P2;SDS_P1;SDS_P2;PMS_P1;PMS_P2;Temp;Humidity;BMP_temperature;BMP_pressure;BME280_temperature;BME280_humidity;BME280_pressure;Samples;Min_cycle;Max_cycle;Signal;HPM_P1;HPM_P2
2022/02/03 00:04:49;;;;;;;23.35;2.95;;;;;;;2.97;100.00;98200.03;4898777;29;20528;-83
2022/02/03 00:07:21;;;;;;;35.30;2.75;;;;;;;3.01;100.00;98211.88;4881955;29;20518;-83
2022/02/03 00:24:07;;;;;;;16.58;2.08;;;;;;;2.90;100.00;98202.13;4898843;29;20067;-83
2022/02/03 00:26:32;;;;;;;21.23;2.72;;;;;;;2.93;100.00;98223.00;4897824;29;20083;-83
2022/02/03 00:29:15;;;;;;;22.92;2.38;;;;;;;2.78;100.00;98219.38;4897740;29;20052;-84
2022/02/03 00:32:05;;;;;;;19.30;2.75;;;;;;;2.92;100.00;98226.75;4881824;29;20060;-82
2022/02/03 00:34:47;;;;;;;16.55;2.13;;;;;;;2.94;100.00;98239.88;4889478;29;20102;-81
2022/02/03 00:37:30;;;;;;;25.13;3.15;;;;;;;2.95;100.00;98239.59;4900179;29;20139;-83
2022/02/03 00:48:32;;;;;;;22.73;3.80;;;;;;;2.81;100.00;98218.88;4892551;29;20485;-83
2022/02/03 00:51:00;;;;;;;22.60;3.20;;;;;;;2.97;100.00;98250.84;4895415;29;20099;-83
2022/02/03 00:53:28;;;;;;;23.88;2.50;;;;;;;3.02;100.00;98236.75;4895032;29;20289;-83
2022/02/03 00:56:02;;;;;;;24.25;2.85;;;;;;;2.95;100.00;98242.28;4881354;29;20071;-83
2022/02/03 00:58:32;;;;;;;26.38;2.70;;;;;;;3.06;100.00;98243.19;4901607;29;20116;-83
2022/02/03 01:00:59;;;;;;;17.45;2.40;;;;;;;3.01;100.00;98252.00;4908793;29;20180;-84
2022/02/03 01:03:29;;;;;;;28.85;3.15;;;;;;;3.03;100.00;98244.50;4901442;29;20104;-84
2022/02/03 01:05:59;;;;;;;25.02;2.83;;;;;;;3.03;100.00;98251.72;4885366;29;20059;-83
2022/02/03 01:08:30;;;;;;;28.38;3.25;;;;;;;3.09;100.00;98253.41;4901905;29;20086;-83
2022/02/03 01:11:13;;;;;;;24.65;2.67;;;;;;;3.15;100.00;98258.53;4900807;29;20098;-84
2022/02/03 01:13:50;;;;;;;20.20;2.80;;;;;;;3.12;100.00;98250.22;4899980;29;20497;-82
2022/02/03 01:16:36;;;;;;;20.77;2.42;;;;;;;3.10;100.00;98245.13;4901954;29;20070;-83
2022/02/03 01:19:28;;;;;;;36.00;3.72;;;;;;;3.13;100.00;98247.28;4901889;29;20116;-83
2022/02/03 01:44:19;;;;;;;25.20;2.63;;;;;;;2.96;100.00;98241.25;4902561;29;20052;-84
2022/02/03 01:47:12;;;;;;;21.52;2.92;;;;;;;2.99;100.00;98250.63;4903401;29;20059;-83
2022/02/03 01:52:51;;;;;;;20.02;2.80;;;;;;;2.85;100.00;98226.13;4902469;29;20079;-84
2022/02/03 01:55:26;;;;;;;29.40;3.10;;;;;;;2.80;100.00;98236.78;4899799;29;20586;-83
2022/02/03 01:58:14;;;;;;;24.23;2.97;;;;;;;2.82;100.00;98229.31;4900588;29;20060;-83
2022/02/03 02:01:02;;;;;;;29.42;2.70;;;;;;;2.93;100.00;98222.19;4894361;29;20634;-83
2022/02/03 02:03:43;;;;;;;17.55;3.22;;;;;;;2.97;100.00;98237.47;4904413;29;20190;-84
2022/02/03 02:06:20;;;;;;;29.05;3.03;;;;;;;2.71;100.00;98232.13;4904068;29;20175;-84
2022/02/03 02:09:02;;;;;;;23.63;3.28;;;;;;;2.63;100.00;98230.69;4904119;29;20119;-84
2022/02/03 02:15:45;;;;;;;26.70;3.00;;;;;;;2.76;100.00;98242.88;4901479;29;20066;-84
2022/02/03 02:42:45;;;;;;;26.35;3.42;;;;;;;3.19;100.00;98213.38;4900806;29;20080;-84
2022/02/03 02:45:15;;;;;;;29.42;2.88;;;;;;;3.21;100.00;98205.09;4898330;29;20052;-83
2022/02/03 02:47:45;;;;;;;25.23;3.45;;;;;;;3.23;100.00;98198.41;4899877;29;20071;-83
2022/02/03 02:50:29;;;;;;;27.27;4.05;;;;;;;3.37;100.00;98198.81;4896893;29;20052;-83
2022/02/03 02:53:17;;;;;;;25.85;2.78;;;;;;;3.42;100.00;98198.88;4897619;29;20594;-83
2022/02/03 02:56:13;;;;;;;27.92;2.70;;;;;;;3.40;100.00;98169.69;4898122;29;20079;-83
2022/02/03 02:58:57;;;;;;;25.60;3.60;;;;;;;3.51;100.00;98198.13;4897493;29;20107;-82
2022/02/03 03:37:27;;;;;;;18.35;2.95;;;;;;;3.97;100.00;98150.25;4904812;29;20423;-83
2022/02/03 03:40:01;;;;;;;14.65;2.20;;;;;;;3.87;100.00;98151.03;4898974;29;20056;-83
2022/02/03 03:42:33;;;;;;;18.10;2.00;;;;;;;4.00;100.00;98158.56;4882395;29;20087;-82
2022/02/03 03:45:04;;;;;;;16.77;2.35;;;;;;;3.89;100.00;98146.22;4897877;29;20139;-82
2022/02/03 03:47:38;;;;;;;20.00;2.33;;;;;;;3.90;100.00;98142.44;4882269;29;20053;-83
2022/02/03 03:50:15;;;;;;;18.60;3.00;;;;;;;3.89;100.00;98142.72;4898714;29;20087;-82
2022/02/03 03:52:58;;;;;;;12.68;2.13;;;;;;;3.89;100.00;98143.53;4887039;29;20080;-82
2022/02/03 03:58:57;;;;;;;20.35;2.50;;;;;;;3.83;100.00;98146.41;4895346;29;20465;-83
2022/02/03 04:32:49;;;;;;;28.50;2.70;;;;;;;3.94;100.00;98118.63;4916342;29;20170;-83
2022/02/03 04:38:27;;;;;;;13.02;2.13;;;;;;;3.94;100.00;98110.59;4907764;29;20447;-82
2022/02/03 05:49:44;;;;;;;12.55;1.33;;;;;;;5.01;100.00;98103.41;4910116;29;20121;-84
2022/02/03 05:52:32;;;;;;;11.43;1.58;;;;;;;4.90;100.00;98074.94;4901139;29;20057;-83
2022/02/03 06:05:47;;;;;;;12.15;1.60;;;;;;;5.10;100.00;98089.47;4898180;29;20060;-84
2022/02/03 06:24:46;;;;;;;15.02;2.17;;;;;;;5.21;100.00;98059.69;4900031;29;20147;-84
2022/02/03 06:29:55;;;;;;;20.13;2.30;;;;;;;5.33;100.00;98064.75;4897579;29;20129;-83
2022/02/03 06:32:23;;;;;;;14.50;2.33;;;;;;;5.31;100.00;98067.72;4881225;29;20058;-83
2022/02/03 06:34:50;;;;;;;13.98;2.60;;;;;;;5.39;100.00;98058.31;4882835;29;20440;-83
2022/02/03 06:37:19;;;;;;;13.52;2.15;;;;;;;5.15;100.00;98043.84;4900843;29;20079;-84
2022/02/03 06:39:46;;;;;;;16.25;2.70;;;;;;;5.06;100.00;98030.16;4921653;29;20040;-78
2022/02/03 06:42:13;;;;;;;14.65;2.47;;;;;;;5.40;100.00;98055.34;4908588;29;20055;-82
2022/02/03 06:44:53;;;;;;;13.65;2.65;;;;;;;5.34;100.00;98052.94;4912029;29;20075;-81
2022/02/03 06:52:29;;;;;;;15.82;3.22;;;;;;;5.33;100.00;98040.59;4896675;29;20075;-83
2022/02/03 06:57:33;;;;;;;14.43;2.65;;;;;;;5.30;100.00;98035.75;4896678;29;20073;-84
2022/02/03 07:00:07;;;;;;;16.23;2.70;;;;;;;5.48;100.00;98053.97;4896221;29;20044;-83
2022/02/03 07:02:39;;;;;;;17.80;3.05;;;;;;;5.30;100.00;98036.56;4899993;29;20059;-83
2022/02/03 07:05:07;;;;;;;21.42;3.78;;;;;;;5.37;100.00;98042.47;4917814;29;20108;-83
2022/02/03 07:07:38;;;;;;;20.60;3.58;;;;;;;5.25;100.00;98011.63;4917901;29;20253;-83
2022/02/03 07:10:07;;;;;;;18.33;3.10;;;;;;;5.45;100.00;98049.16;4916051;29;20041;-82
2022/02/03 07:12:35;;;;;;;15.98;3.20;;;;;;;5.65;100.00;98047.22;4890111;29;20080;-84
2022/02/03 07:15:04;;;;;;;16.40;2.67;;;;;;;5.68;100.00;98037.03;4908654;29;20032;-83
2022/02/03 07:17:33;;;;;;;16.90;2.95;;;;;;;5.58;100.00;98035.16;4899787;29;20076;-84
2022/02/03 07:20:03;;;;;;;12.98;2.60;;;;;;;5.55;100.00;98028.47;4883322;29;20049;-84
2022/02/03 07:22:30;;;;;;;15.88;2.67;;;;;;;5.70;100.00;98034.88;4908131;29;20048;-83
2022/02/03 07:24:58;;;;;;;17.38;3.35;;;;;;;5.84;100.00;98041.25;4903396;29;20048;-84
2022/02/03 07:27:26;;;;;;;15.30;2.60;;;;;;;5.60;100.00;98047.25;4882108;29;20079;-84
2022/02/03 07:29:53;;;;;;;18.40;3.05;;;;;;;5.66;100.00;98043.47;4891907;29;20052;-84
2022/02/03 07:32:22;;;;;;;18.80;3.53;;;;;;;5.64;100.00;98040.25;4905121;29;20048;-85
2022/02/03 07:34:51;;;;;;;13.88;3.05;;;;;;;5.65;100.00;98038.38;4910505;29;20079;-86
2022/02/03 07:37:18;;;;;;;19.08;3.42;;;;;;;5.76;100.00;98037.25;4924271;29;20074;-86
2022/02/03 07:39:46;;;;;;;16.70;3.28;;;;;;;5.85;100.00;98032.97;4906243;29;20768;-83
2022/02/03 07:42:13;;;;;;;18.63;3.45;;;;;;;5.68;100.00;98032.44;4880223;29;20053;-83
2022/02/03 07:44:40;;;;;;;24.25;3.60;;;;;;;5.74;100.00;98022.50;4896186;29;20151;-84
2022/02/03 07:47:12;;;;;;;13.90;3.40;;;;;;;5.49;100.00;98029.56;4880910;29;20049;-84
2022/02/03 07:49:39;;;;;;;15.88;3.65;;;;;;;5.78;100.00;98043.16;4895749;29;20084;-85
2022/02/03 07:52:06;;;;;;;22.63;3.90;;;;;;;5.88;100.00;98042.38;4896491;29;20170;-84
2022/02/03 07:54:33;;;;;;;19.15;4.32;;;;;;;5.81;100.00;98023.81;4878279;29;20056;-84
2022/02/03 07:57:02;;;;;;;19.17;4.10;;;;;;;5.79;100.00;98014.41;4895348;29;20502;-83
2022/02/03 07:59:29;;;;;;;17.05;3.28;;;;;;;5.71;100.00;98023.03;4906632;29;20059;-84
2022/02/03 08:01:56;;;;;;;22.45;3.95;;;;;;;5.81;100.00;98021.13;4894343;29;20552;-84
2022/02/03 08:04:28;;;;;;;20.70;4.07;;;;;;;6.04;100.00;98025.13;4902238;29;20080;-84
2022/02/03 08:06:55;;;;;;;22.00;4.10;;;;;;;6.03;100.00;98020.81;4885003;29;20191;-83
2022/02/03 08:09:26;;;;;;;16.08;4.32;;;;;;;5.85;100.00;98027.59;4899983;29;20075;-83
2022/02/03 08:11:55;;;;;;;21.08;4.38;;;;;;;6.10;100.00;98016.72;4900925;29;20244;-84
2022/02/03 08:17:01;;;;;;;25.38;5.05;;;;;;;5.82;100.00;98005.81;4900022;29;20637;-83
2022/02/03 08:19:37;;;;;;;22.10;5.15;;;;;;;6.25;100.00;98005.91;4900928;29;20080;-83
2022/02/03 08:22:13;;;;;;;;;;;;;;;6.31;100.00;98006.69;4903604;29;20151;-83
2022/02/03 08:24:53;;;;;;;22.15;4.75;;;;;;;6.19;100.00;97982.03;4905929;29;19937;-83
2022/02/03 08:32:48;;;;;;;24.02;6.03;;;;;;;6.14;100.00;97971.31;4901103;29;19955;-83
2022/02/03 08:37:52;;;;;;;26.00;6.15;;;;;;;6.36;100.00;97973.56;4901553;29;20045;-83
2022/02/03 08:40:30;;;;;;;28.75;6.25;;;;;;;6.42;100.00;97967.09;4884267;29;20056;-83
2022/02/03 08:42:58;;;;;;;22.70;6.28;;;;;;;6.60;100.00;97940.31;4883738;29;20467;-84
2022/02/03 08:45:25;;;;;;;18.60;4.82;;;;;;;6.40;100.00;97948.53;4883512;29;20063;-82
2022/02/03 08:47:51;;;;;;;23.65;6.25;;;;;;;6.71;100.00;97931.06;4906277;29;20049;-82
2022/02/03 08:50:19;;;;;;;27.45;5.80;;;;;;;7.01;100.00;97945.34;4898772;29;20148;-83
2022/02/03 08:53:04;;;;;;;31.38;6.10;;;;;;;7.11;100.00;97932.59;4883477;29;20144;-82
2022/02/03 09:38:59;;;;;;;25.35;5.15;;;;;;;7.19;100.00;97917.69;4899562;29;20363;-83
2022/02/03 09:58:18;;;;;;;18.02;5.70;;;;;;;7.65;100.00;97896.41;4896108;29;20104;-83
2022/02/03 10:01:07;;;;;;;18.42;5.03;;;;;;;7.76;100.00;97896.00;4897596;29;20052;-84
2022/02/03 10:03:47;;;;;;;21.00;5.22;;;;;;;7.87;100.00;97892.03;4899188;29;20091;-85
2022/02/03 10:06:21;;;;;;;17.02;5.13;;;;;;;7.95;100.00;97882.50;4883765;29;20123;-82
2022/02/03 10:08:53;;;;;;;18.08;5.03;;;;;;;8.25;100.00;97892.84;4898427;29;20083;-82
2022/02/03 10:11:23;;;;;;;16.17;4.95;;;;;;;8.08;100.00;97879.88;4881370;29;20063;-84
2022/02/03 10:13:58;;;;;;;18.65;4.80;;;;;;;8.20;100.00;97876.75;4883942;29;20450;-84
2022/02/03 10:16:28;;;;;;;15.23;5.00;;;;;;;8.23;100.00;97884.25;4896400;29;20108;-84
2022/02/03 10:19:12;;;;;;;17.98;4.57;;;;;;;8.18;100.00;97859.25;4897342;29;20048;-84
2022/02/03 10:21:40;;;;;;;16.83;5.13;;;;;;;8.18;100.00;97877.03;4879466;29;20059;-85
2022/02/03 10:24:08;;;;;;;16.23;5.28;;;;;;;8.28;100.00;97876.13;4897505;29;20053;-84
2022/02/03 10:26:36;;;;;;;14.60;4.28;;;;;;;8.36;100.00;97869.25;4881608;29;20061;-85
2022/02/03 10:29:05;;;;;;;15.23;4.80;;;;;;;8.55;100.00;97860.00;4885376;29;20049;-82
2022/02/03 10:31:38;;;;;;;13.50;4.32;;;;;;;8.76;100.00;97874.75;4902343;29;20056;-85
2022/02/03 10:34:14;;;;;;;13.43;4.35;;;;;;;8.63;100.00;97850.44;4901376;29;20060;-84
2022/02/03 10:37:06;;;;;;;18.15;4.95;;;;;;;8.73;100.00;97866.44;4920590;29;20083;-83
2022/02/03 10:50:42;;;;;;;10.02;4.38;;;;;;;9.11;100.00;97837.41;4913600;29;20056;-84
2022/02/03 11:01:11;;;;;;;11.68;4.53;;;;;;;9.50;100.00;97826.06;4918016;29;20056;-81
2022/02/03 11:08:51;;;;;;;7.18;2.90;;;;;;;10.40;100.00;97809.66;4899600;29;20045;-84
2022/02/03 11:11:24;;;;;;;9.27;3.13;;;;;;;9.82;100.00;97796.13;4900982;29;20056;-81
2022/02/03 11:13:51;;;;;;;9.80;3.28;;;;;;;10.03;100.00;97824.31;4900705;29;20052;-83
2022/02/03 11:16:20;;;;;;;8.00;3.30;;;;;;;9.99;100.00;97809.78;4900820;29;20056;-83
2022/02/03 11:18:48;;;;;;;8.00;3.00;;;;;;;10.00;100.00;97795.19;4883079;29;20052;-84
2022/02/03 11:21:15;;;;;;;5.80;2.90;;;;;;;9.85;100.00;97787.44;4884472;29;20055;-85
2022/02/03 11:23:53;;;;;;;8.25;3.10;;;;;;;9.77;100.00;97782.75;4899984;29;20052;-82
2022/02/03 11:26:41;;;;;;;9.18;3.47;;;;;;;9.55;100.00;97786.19;4900776;29;20083;-82
2022/02/03 11:41:10;;;;;;;6.88;3.15;;;;;;;9.53;100.00;97769.50;4916349;29;20052;-84
2022/02/03 11:47:02;;;;;;;5.47;2.63;;;;;;;10.37;100.00;97765.06;4902757;29;20083;-82
2022/02/03 12:01:33;;;;;;;5.63;2.63;;;;;;;10.10;100.00;97764.38;4885314;29;20158;-84
2022/02/03 12:16:07;;;;;;;4.55;2.70;;;;;;;9.26;100.00;97774.97;4860294;29;20117;-84
2022/02/03 12:18:35;;;;;;;5.78;2.85;;;;;;;9.59;100.00;97773.69;4861945;29;20073;-82
2022/02/03 12:21:10;;;;;;;5.80;3.20;;;;;;;9.27;100.00;97746.84;4864712;29;20076;-84
2022/02/03 12:24:12;;;;;;;7.15;3.45;;;;;;;9.46;100.00;97739.41;4863883;29;20058;-84
2022/02/03 12:29:44;;;;;;;7.82;2.90;;;;;;;9.70;100.00;97752.63;4835112;29;20064;-83
2022/02/03 12:43:13;;;;;;;4.85;2.90;;;;;;;9.80;100.00;97728.06;4895431;29;20083;-84
2022/02/03 12:45:41;;;;;;;5.95;2.95;;;;;;;9.52;100.00;97729.28;4896016;29;20160;-84
2022/02/03 12:48:08;;;;;;;6.40;3.25;;;;;;;9.39;100.00;97728.22;4896497;29;20148;-84
2022/02/03 12:50:38;;;;;;;5.53;3.00;;;;;;;9.27;100.00;97709.81;4914694;29;20473;-84
2022/02/03 12:53:06;;;;;;;6.68;3.20;;;;;;;9.35;100.00;97705.59;4920673;29;20079;-84
2022/02/03 12:55:38;;;;;;;4.10;2.80;;;;;;;9.51;100.00;97712.25;4904712;29;20052;-84
2022/02/03 12:58:18;;;;;;;5.03;3.20;;;;;;;9.44;100.00;97692.97;4902105;29;20104;-84
2022/02/03 13:00:58;;;;;;;5.35;3.28;;;;;;;9.51;100.00;97671.72;4900625;29;20095;-84
2022/02/03 13:03:43;;;;;;;5.75;3.05;;;;;;;9.67;100.00;97697.28;4900358;29;20139;-84
2022/02/03 13:06:17;;;;;;;5.47;3.22;;;;;;;9.20;100.00;97644.63;4884746;29;20052;-83
2022/02/03 13:08:48;;;;;;;5.22;2.90;;;;;;;9.36;100.00;97696.41;4902035;29;20049;-82
2022/02/03 13:14:01;;;;;;;7.05;3.35;;;;;;;9.33;100.00;97672.69;4901261;29;20087;-81
2022/02/03 13:16:28;;;;;;;8.90;3.70;;;;;;;9.25;100.00;97692.31;4900675;29;20052;-81
2022/02/03 13:19:12;;;;;;;6.13;3.80;;;;;;;9.47;100.00;97678.06;4900276;29;20100;-80
2022/02/03 13:22:09;;;;;;;5.18;3.28;;;;;;;9.52;100.00;97692.25;4885810;29;20049;-82
2022/02/03 13:25:04;;;;;;;7.18;3.67;;;;;;;9.32;100.00;97669.19;4901957;29;20123;-83
2022/02/03 13:30:11;;;;;;;6.50;3.88;;;;;;;9.65;100.00;97661.63;4903242;29;20052;-83
2022/02/03 13:32:44;;;;;;;5.78;3.60;;;;;;;9.48;100.00;97634.50;4889863;29;20124;-83
2022/02/03 13:35:33;;;;;;;5.85;3.80;;;;;;;9.53;100.00;97649.78;4903605;29;20057;-84
2022/02/03 13:38:10;;;;;;;6.10;3.65;;;;;;;9.42;100.00;97641.13;4885571;29;20058;-83
2022/02/03 13:40:37;;;;;;;7.78;4.43;;;;;;;9.47;100.00;97640.22;4899978;29;20056;-82
2022/02/03 13:43:13;;;;;;;6.38;4.25;;;;;;;9.49;100.00;97630.69;4903774;29;20056;-83
2022/02/03 13:45:43;;;;;;;6.70;4.00;;;;;;;9.29;100.00;97631.97;4901194;29;20470;-83
2022/02/03 13:48:18;;;;;;;6.53;4.18;;;;;;;9.50;100.00;97632.28;4884346;29;20108;-83
2022/02/03 13:50:52;;;;;;;7.50;4.10;;;;;;;9.43;100.00;97618.41;4912924;29;20126;-83
2022/02/03 13:53:25;;;;;;;7.03;4.10;;;;;;;9.39;100.00;97610.13;4919211;29;20079;-81
2022/02/03 14:16:14;;;;;;;7.35;3.83;;;;;;;8.88;100.00;97598.13;4900869;29;20147;-83
2022/02/03 14:29:24;;;;;;;6.95;4.40;;;;;;;8.78;100.00;97578.34;4900587;29;20030;-83
2022/02/03 14:32:10;;;;;;;6.70;4.53;;;;;;;8.91;100.00;97576.72;4883343;29;20155;-85
2022/02/03 14:34:37;;;;;;;;;;;;;;;8.95;100.00;97566.09;4884345;29;20056;-85
2022/02/03 14:37:12;;;;;;;7.90;4.57;;;;;;;8.98;100.00;97550.06;4901157;29;19930;-82
2022/02/03 14:42:27;;;;;;;6.70;4.32;;;;;;;9.13;100.00;97555.13;4899816;29;20052;-82
2022/02/03 14:44:54;;;;;;;8.82;3.83;;;;;;;8.99;100.00;97548.19;4898508;29;20095;-85
2022/02/03 14:47:23;;;;;;;6.03;3.92;;;;;;;9.21;100.00;97540.09;4900645;29;20056;-83
2022/02/03 14:49:49;;;;;;;6.15;3.55;;;;;;;9.03;100.00;97557.28;4898412;29;20564;-83
2022/02/03 14:52:27;;;;;;;6.35;3.28;;;;;;;8.92;100.00;97558.63;4899873;29;20044;-84
2022/02/03 15:00:27;;;;;;;5.50;3.60;;;;;;;8.85;100.00;97572.53;4894130;29;20339;-81
2022/02/03 15:02:55;;;;;;;4.63;3.20;;;;;;;8.85;100.00;97572.53;4895818;29;20048;-85
2022/02/03 15:05:26;;;;;;;9.55;3.83;;;;;;;8.72;100.00;97584.94;4894051;29;20048;-82
2022/02/03 15:07:59;;;;;;;5.65;3.58;;;;;;;8.78;100.00;97572.16;4880815;29;20083;-80
2022/02/03 15:15:46;;;;;;;5.97;3.60;;;;;;;8.68;100.00;97559.69;4893146;29;20056;-82
2022/02/03 15:18:15;;;;;;;5.22;3.63;;;;;;;8.66;100.00;97556.50;4896843;29;20052;-83
2022/02/03 15:20:42;;;;;;;7.78;3.88;;;;;;;8.66;100.00;97547.59;4895111;29;20131;-82
2022/02/03 15:23:09;;;;;;;5.38;3.70;;;;;;;8.91;100.00;97551.59;4898416;29;20063;-83
2022/02/03 15:25:36;;;;;;;4.70;3.13;;;;;;;9.29;100.00;97545.53;4881419;29;20116;-82
2022/02/03 15:28:03;;;;;;;5.85;3.15;;;;;;;8.82;100.00;97519.16;4904258;29;20066;-83
2022/02/03 15:30:30;;;;;;;5.63;3.58;;;;;;;8.93;100.00;97541.31;4907443;29;20048;-83
2022/02/03 15:32:57;;;;;;;5.20;3.15;;;;;;;9.10;100.00;97544.13;4904659;29;20059;-83
2022/02/03 15:35:38;;;;;;;3.80;2.80;;;;;;;8.77;100.00;97538.19;4899336;29;20044;-82
2022/02/03 15:38:14;;;;;;;3.72;2.58;;;;;;;8.77;100.00;97528.16;4882633;29;20112;-84
2022/02/03 15:40:42;;;;;;;6.63;2.92;;;;;;;8.77;100.00;97540.88;4898632;29;20056;-82
2022/02/03 15:43:25;;;;;;;4.97;3.10;;;;;;;8.45;100.00;97517.59;4900039;29;20095;-81
2022/02/03 15:45:56;;;;;;;3.58;2.60;;;;;;;8.44;100.00;97520.59;4883908;29;20078;-82
2022/02/03 16:13:15;;;;;;;4.65;3.20;;;;;;;8.30;100.00;97500.94;4904501;29;20056;-85
2022/02/03 16:16:21;;;;;;;4.47;2.85;;;;;;;8.06;100.00;97490.34;4908506;29;20079;-85
2022/02/03 16:18:02;;;;;;;4.32;2.70;;;;;;;8.21;100.00;97508.13;4917865;29;20084;-82
2022/02/03 16:20:37;;;;;;;4.30;2.70;;;;;;;8.16;100.00;97495.53;4916665;29;20052;-81
2022/02/03 16:52:47;;;;;;;3.80;2.33;;;;;;;8.66;100.00;97489.03;4902066;29;20048;-76
2022/02/03 16:55:18;;;;;;;4.32;2.55;;;;;;;8.65;100.00;97500.94;4899586;29;20110;-82
2022/02/03 16:57:47;;;;;;;4.40;2.60;;;;;;;8.59;100.00;97498.66;4882997;29;20056;-83
2022/02/03 17:00:16;;;;;;;4.35;2.45;;;;;;;8.33;100.00;97493.03;4899510;29;20048;-82
2022/02/03 17:03:00;;;;;;;4.53;2.78;;;;;;;8.34;100.00;97504.59;4900238;29;20056;-83
2022/02/03 17:05:27;;;;;;;4.25;2.78;;;;;;;8.24;100.00;97475.94;4902272;29;20147;-83
2022/02/03 17:07:54;;;;;;;5.47;3.10;;;;;;;8.22;100.00;97496.22;4903455;29;20049;-82
2022/02/03 17:10:21;;;;;;;6.03;2.85;;;;;;;8.31;100.00;97481.75;4900973;29;20087;-83
2022/02/03 17:12:49;;;;;;;4.15;2.70;;;;;;;8.30;100.00;97490.16;4906081;29;20059;-82
2022/02/03 17:15:20;;;;;;;4.43;2.88;;;;;;;8.30;100.00;97490.94;4906601;29;20052;-83
2022/02/03 17:17:51;;;;;;;5.25;3.20;;;;;;;8.32;100.00;97504.13;4904340;29;20623;-83
2022/02/03 17:20:20;;;;;;;5.15;3.28;;;;;;;8.43;100.00;97511.69;4880994;29;20048;-81
2022/02/03 17:22:50;;;;;;;6.40;4.03;;;;;;;8.27;100.00;97504.22;4880611;29;20167;-80
2022/02/03 17:25:24;;;;;;;5.95;3.67;;;;;;;8.26;100.00;97503.41;4865197;29;20064;-81
2022/02/03 17:28:08;;;;;;;7.38;4.03;;;;;;;8.32;100.00;97510.31;4868302;29;20049;-81
2022/02/03 17:31:00;;;;;;;7.18;4.38;;;;;;;8.20;100.00;97506.53;4884612;29;20049;-84
2022/02/03 18:09:22;;;;;;;8.30;5.45;;;;;;;8.22;100.00;97483.53;4895230;29;20083;-80
2022/02/03 18:18:08;;;;;;;9.82;5.00;;;;;;;8.15;100.00;97483.16;4856558;29;20098;-79
2022/02/03 18:57:36;;;;;;;;;;;;;;;;;;;;;
2022/02/03 19:00:28;;;;;;;10.43;6.43;;;;;;;8.09;100.00;97446.63;4880481;29;20053;-80
2022/02/03 19:24:38;;;;;;;13.27;7.00;;;;;;;7.98;100.00;97426.38;4904219;29;20437;-80
2022/02/03 20:08:20;;;;;;;16.25;8.88;;;;;;;8.52;100.00;97387.66;4898467;29;20056;-82
2022/02/03 20:10:49;;;;;;;13.55;8.48;;;;;;;8.47;100.00;97387.78;4897081;29;20076;-81
2022/02/03 20:13:16;;;;;;;12.65;7.88;;;;;;;8.42;100.00;97379.81;4879621;29;20104;-80
2022/02/03 20:15:45;;;;;;;13.73;8.45;;;;;;;8.55;100.00;97392.44;4880079;29;20060;-80
2022/02/03 20:18:12;;;;;;;14.18;8.32;;;;;;;8.37;100.00;97388.03;4893644;29;20040;-78
2022/02/03 20:20:40;;;;;;;14.80;8.82;;;;;;;8.24;100.00;97376.16;4914192;29;20104;-78
2022/02/03 20:23:10;;;;;;;14.00;8.27;;;;;;;8.32;100.00;97374.66;4913317;29;20056;-82
2022/02/03 20:25:38;;;;;;;16.80;8.38;;;;;;;8.46;100.00;97376.22;4913587;29;20048;-81
2022/02/03 20:28:06;;;;;;;15.55;8.65;;;;;;;8.32;100.00;97364.69;4914050;29;20053;-82
2022/02/03 20:30:34;;;;;;;15.20;9.13;;;;;;;8.55;100.00;97365.47;4911043;29;20100;-79
2022/02/03 20:33:01;;;;;;;13.52;8.63;;;;;;;8.44;100.00;97362.22;4891726;29;20048;-82
2022/02/03 20:35:27;;;;;;;14.38;8.90;;;;;;;8.17;100.00;97338.06;4890528;29;21029;-83
2022/02/03 20:37:54;;;;;;;13.25;8.38;;;;;;;8.41;100.00;97368.25;4904337;29;20056;-84
2022/02/03 20:40:21;;;;;;;14.10;9.15;;;;;;;8.25;100.00;97364.28;4903018;29;20068;-80
2022/02/03 20:42:47;;;;;;;15.40;8.95;;;;;;;8.42;100.00;97350.94;4886730;29;20140;-83
2022/02/03 20:45:14;;;;;;;13.07;8.20;;;;;;;8.47;100.00;97361.59;4902279;29;20478;-81
2022/02/03 20:47:41;;;;;;;13.63;7.95;;;;;;;8.69;100.00;97360.81;4890645;29;20116;-81
2022/02/03 20:50:11;;;;;;;14.95;9.07;;;;;;;8.45;100.00;97365.72;4894637;29;20116;-81
2022/02/03 20:52:37;;;;;;;13.82;7.82;;;;;;;8.47;100.00;97361.59;4896512;29;20053;-83
2022/02/03 20:55:05;;;;;;;13.52;8.60;;;;;;;8.29;100.00;97348.31;4897500;29;20053;-82
2022/02/03 20:57:32;;;;;;;14.02;8.30;;;;;;;8.46;100.00;97326.88;4912746;29;20052;-81
2022/02/03 21:05:15;;;;;;;11.95;8.10;;;;;;;8.54;100.00;97348.47;4906458;29;20052;-82
2022/02/03 21:07:44;;;;;;;13.85;8.30;;;;;;;8.44;100.00;97340.63;4914356;29;20100;-80
2022/02/03 21:10:15;;;;;;;13.45;8.30;;;;;;;8.32;100.00;97343.09;4913554;29;20048;-84
2022/02/03 21:12:42;;;;;;;14.07;8.70;;;;;;;8.34;100.00;97348.19;4906986;29;20052;-83
2022/02/03 21:15:11;;;;;;;12.52;8.15;;;;;;;8.41;100.00;97346.69;4890193;29;20084;-80
2022/02/03 21:17:38;;;;;;;16.42;9.07;;;;;;;8.31;100.00;97333.41;4907408;29;20060;-81
2022/02/03 21:20:13;;;;;;;14.68;8.85;;;;;;;8.21;100.00;97352.50;4890042;29;20049;-81
2022/02/03 21:22:40;;;;;;;14.45;9.10;;;;;;;8.51;100.00;97349.13;4906528;29;20056;-81
2022/02/03 21:25:22;;;;;;;14.15;8.90;;;;;;;8.47;100.00;97358.09;4908021;29;20053;-79
2022/02/03 21:27:53;;;;;;;17.75;10.02;;;;;;;8.63;100.00;97348.53;4912454;29;20040;-79
2022/02/03 21:30:22;;;;;;;15.57;9.88;;;;;;;8.64;100.00;97353.66;4899465;29;20294;-82
2022/02/03 21:32:50;;;;;;;15.02;9.13;;;;;;;8.42;100.00;97342.06;4898103;29;20052;-82
2022/02/03 21:35:20;;;;;;;18.02;9.55;;;;;;;8.41;100.00;97340.47;4899593;29;20048;-81
2022/02/03 21:37:48;;;;;;;14.63;9.57;;;;;;;8.55;100.00;97351.97;4902245;29;20064;-80
2022/02/03 21:40:19;;;;;;;16.02;10.02;;;;;;;8.39;100.00;97334.59;4904402;29;20060;-81
2022/02/03 21:42:47;;;;;;;16.13;9.77;;;;;;;8.47;100.00;97333.84;4904790;29;20067;-82
2022/02/03 21:45:17;;;;;;;16.10;9.75;;;;;;;8.39;100.00;97331.91;4904633;29;20056;-83
2022/02/03 21:47:44;;;;;;;19.02;10.35;;;;;;;8.41;100.00;97332.38;4905016;29;20048;-81
2022/02/03 21:50:11;;;;;;;16.00;9.93;;;;;;;8.32;100.00;97329.63;4887732;29;20053;-81
2022/02/03 21:52:44;;;;;;;18.30;10.48;;;;;;;8.43;100.00;97330.16;4886981;29;20120;-84
2022/02/03 21:55:11;;;;;;;15.85;10.20;;;;;;;8.31;100.00;97335.34;4886795;29;20514;-82
2022/02/03 21:57:41;;;;;;;18.80;10.55;;;;;;;8.62;100.00;97331.53;4885627;29;20056;-81
2022/02/03 22:00:15;;;;;;;18.25;11.27;;;;;;;8.53;100.00;97333.41;4885843;29;20075;-82
2022/02/03 22:02:43;;;;;;;18.30;11.27;;;;;;;8.51;100.00;97330.22;4887172;29;20104;-81
2022/02/03 22:05:13;;;;;;;21.58;11.57;;;;;;;8.33;100.00;97323.13;4888915;29;20112;-80
2022/02/03 22:07:41;;;;;;;15.60;10.23;;;;;;;8.39;100.00;97319.19;4911669;29;20053;-79
2022/02/03 22:10:13;;;;;;;18.52;11.75;;;;;;;8.42;100.00;97312.38;4909233;29;20116;-82
2022/02/03 22:12:40;;;;;;;18.08;11.25;;;;;;;8.33;100.00;97330.44;4889107;29;20056;-80
2022/02/03 22:15:08;;;;;;;19.00;11.57;;;;;;;8.38;100.00;97325.72;4907844;29;20060;-81
2022/02/03 22:17:35;;;;;;;19.10;11.95;;;;;;;8.26;100.00;97322.72;4891939;29;20056;-80
2022/02/03 22:20:07;;;;;;;21.27;11.98;;;;;;;8.23;100.00;97307.19;4892771;29;20489;-79
2022/02/03 22:25:25;;;;;;;18.73;11.40;;;;;;;8.37;100.00;97307.91;4903255;29;20076;-80
2022/02/03 22:39:20;;;;;;;18.40;8.98;;;;;;;8.31;100.00;97302.97;4902825;29;20148;-80
2022/02/03 22:49:43;;;;;;;18.95;12.00;;;;;;;8.30;100.00;97287.88;4906591;29;20175;-80
2022/02/03 22:52:11;;;;;;;19.42;12.68;;;;;;;8.20;100.00;97280.81;4907115;29;20467;-83
2022/02/03 22:54:39;;;;;;;21.08;12.57;;;;;;;8.35;100.00;97287.75;4888104;29;20081;-82
2022/02/03 22:57:08;;;;;;;20.50;12.75;;;;;;;8.46;100.00;97289.09;4904435;29;20480;-82
2022/02/03 23:02:05;;;;;;;22.65;12.75;;;;;;;8.33;100.00;97271.91;4902823;29;20056;-83
2022/02/03 23:04:38;;;;;;;20.73;12.90;;;;;;;8.36;100.00;97281.28;4903480;29;20049;-81
2022/02/03 23:08:05;;;;;;;19.38;12.25;;;;;;;8.26;100.00;97284.19;4904045;29;20060;-79
2022/02/03 23:10:26;;;;;;;21.63;13.73;;;;;;;8.30;100.00;97301.38;4898641;29;20062;-81
2022/02/03 23:13:08;;;;;;;24.17;13.80;;;;;;;8.40;100.00;97291.13;4902972;29;20056;-82
2022/02/03 23:18:29;;;;;;;25.60;13.23;;;;;;;8.24;100.00;97291.78;4900064;29;20093;-82
2022/02/03 23:23:39;;;;;;;22.92;13.88;;;;;;;8.35;100.00;97299.34;4900953;29;20052;-83